Aviation Digital Data Service (ADDS)

Output produced by METARs form (1117 UTC 19 February 2019)
found at http://www.aviationweather.gov/metar/data/
 
Forecast for: PGRO (ROTA INTL AIRP , FM)
Text: PGRO 190527Z 1906/2006 06014G20KT P6SM VCSH SCT014 BKN035 BKN100
Forecast period: 0600 UTC 19 February 2019 to 0600 UTC 20 February 2019
Forecast type: FROM: standard forecast or significant change
Winds: from the ENE (60 degrees) at 16 MPH (14 knots; 7.2 m/s)
gusting to 23 MPH (20 knots; 10.3 m/s)
Visibility: 6 or more miles 10+ km)
Ceiling: 3500 feet AGL
Clouds: scattered clouds at 1400 feet AGL
broken clouds at 3500 feet AGL
broken clouds at 10000 feet AGL
Weather: VCSH  (showers in vicinity)
Text: TEMPO 1906/1908 5SM -SHRA SCT014 OVC025
Forecast period: 0600 to 0800 UTC 19 February 2019
Forecast type: TEMPORARY: The following changes expected for less than half the time period
Visibility: 5 miles (8 km)
Ceiling: 2500 feet AGL
Clouds: scattered clouds at 1400 feet AGL
overcast cloud deck at 2500 feet AGL
Weather: -SHRA  (light rain showers)